Terminal Aerodrome Forecast
Issued by NWS

Home | Current Version | Previous Version | Text Only | Print | Product List | Glossary On
Versions: 1 2 3 4 5 6 7 8 9 10 11 12 13
000
FTUS42 TJSJ 282345
TAFJSJ
TAF
TJSJ 282345Z 2900/2924 08011KT P6SM VCSH SCT025 BKN080
      TEMPO 2900/2902 RA BKN025
     FM291400 08013KT P6SM VCTS SCT020CB BKN080
     FM292200 09008KT P6SM VCTS SCT025CB BKN050 OVC090=

USA.gov is the U.S. government's official web portal to all federal, state and local government web resources and services.